Time;durP1;ratioP1;P1;durP2;ratioP2;P2;SDS_P1;SDS_P2;PMS_P1;PMS_P2;Temp;Humidity;BMP_temperature;BMP_pressure;BME280_temperature;BME280_humidity;BME280_pressure;Samples;Min_cycle;Max_cycle;Signal;HPM_P1;HPM_P2
2022/12/31 00:00:16;;;;;;;;;;;;;;;9.83;100.00;96313.09;5059061;28;20363;-77
2022/12/31 00:02:41;;;;;;;;;;;;;;;9.85;100.00;96322.34;5076458;28;20447;-77
2022/12/31 00:05:08;;;;;;;;;;;;;;;9.86;100.00;96326.53;5059286;28;19986;-77
2022/12/31 00:07:34;;;;;;;;;;;;;;;9.88;100.00;96326.34;5076460;28;20321;-77
2022/12/31 00:10:00;;;;;;;;;;;;;;;9.90;100.00;96327.72;5076489;28;20336;-76
2022/12/31 00:12:26;;;;;;;;;;;;;;;9.91;100.00;96333.75;5076654;28;20282;-77
2022/12/31 00:14:52;;;;;;;;;;;;;;;9.92;100.00;96327.50;5058472;28;20047;-77
2022/12/31 00:17:18;;;;;;;;;;;;;;;9.93;100.00;96327.28;5058445;28;20004;-77
2022/12/31 00:19:44;;;;;;;;;;;;;;;9.97;100.00;96335.50;5076386;28;19981;-76
2022/12/31 00:22:10;;;;;;;;;;;;;;;10.04;100.00;96341.50;5076159;28;19963;-77
2022/12/31 00:24:36;;;;;;;;;;;;;;;10.10;100.00;96351.13;5076374;28;20384;-78
2022/12/31 00:27:02;;;;;;;;;;;;;;;10.17;100.00;96343.19;5076231;28;19960;-77
2022/12/31 00:29:27;;;;;;;;;;;;;;;10.24;100.00;96354.38;5076629;28;19994;-77
2022/12/31 00:31:53;;;;;;;;;;;;;;;10.37;100.00;96356.09;5075921;28;19959;-77
2022/12/31 00:34:19;;;;;;;;;;;;;;;10.44;100.00;96371.78;5075976;28;20012;-77
2022/12/31 00:36:45;;;;;;;;;;;;;;;10.52;100.00;96374.91;5044572;28;19980;-77
2022/12/31 00:39:11;;;;;;;;;;;;;;;10.60;100.00;96375.63;5076143;28;19959;-77
2022/12/31 00:41:37;;;;;;;;;;;;;;;10.66;100.00;96372.13;5076101;28;20001;-77
2022/12/31 00:44:03;;;;;;;;;;;;;;;10.70;100.00;96368.03;5075751;28;19967;-77
2022/12/31 00:46:30;;;;;;;;;;;;;;;10.73;100.00;96372.81;5074842;28;20395;-77
2022/12/31 00:48:56;;;;;;;;;;;;;;;10.75;100.00;96368.97;5075906;28;19968;-78
2022/12/31 00:51:23;;;;;;;;;;;;;;;10.80;100.00;96367.53;5075914;28;19954;-77
2022/12/31 00:53:49;;;;;;;;;;;;;;;10.81;100.00;96369.09;5075659;28;19961;-77
2022/12/31 00:56:17;;;;;;;;;;;;;;;10.82;100.00;96382.00;5076001;28;20416;-77
2022/12/31 00:58:43;;;;;;;;;;;;;;;10.85;100.00;96388.63;5075822;28;19956;-78
2022/12/31 01:01:14;;;;;;;;;;;;;;;10.87;100.00;96384.75;5075771;28;19965;-77
2022/12/31 01:03:40;;;;;;;;;;;;;;;10.89;100.00;96393.22;5075363;28;19974;-75
2022/12/31 01:06:06;;;;;;;;;;;;;;;10.92;100.00;96392.00;5075622;28;20025;-77
2022/12/31 01:08:32;;;;;;;;;;;;;;;10.92;100.00;96395.41;5075321;28;20355;-77
2022/12/31 01:13:44;;;;;;;;;;;;;;;10.97;100.00;96394.75;5075211;28;19954;-77
2022/12/31 01:16:11;;;;;;;;;;;;;;;10.99;100.00;96408.44;5075257;28;20319;-77
2022/12/31 01:18:37;;;;;;;;;;;;;;;11.04;100.00;96416.44;5075115;28;19948;-77
2022/12/31 01:21:04;;;;;;;;;;;;;;;11.08;100.00;96416.81;5075125;28;20008;-77
2022/12/31 01:23:30;;;;;;;;;;;;;;;11.12;100.00;96420.59;5075101;28;20421;-77
2022/12/31 01:25:58;;;;;;;;;;;;;;;11.15;100.00;96428.03;5075126;28;19967;-77
2022/12/31 01:28:24;;;;;;;;;;;;;;;11.16;100.00;96430.41;5075258;28;19960;-77
2022/12/31 01:30:50;;;;;;;;;;;;;;;11.17;100.00;96424.16;5057435;28;20375;-76
2022/12/31 01:33:16;;;;;;;;;;;;;;;11.20;100.00;96430.00;5074865;28;19958;-77
2022/12/31 01:35:41;;;;;;;;;;;;;;;11.21;100.00;96428.97;5057287;28;20002;-76
2022/12/31 01:38:07;;;;;;;;;;;;;;;11.20;100.00;96432.63;5074886;28;20463;-77
2022/12/31 01:40:38;;;;;;;;;;;;;;;11.18;100.00;96428.38;5074669;28;19966;-77
2022/12/31 01:43:17;;;;;;;;;;;;;;;11.18;100.00;96436.25;5074659;28;19964;-77
2022/12/31 01:45:45;;;;;;;;;;;;;;;11.18;100.00;96430.22;5074722;28;19969;-77
2022/12/31 01:48:12;;;;;;;;;;;;;;;11.15;100.00;96431.47;5074542;28;19963;-77
2022/12/31 01:50:39;;;;;;;;;;;;;;;11.12;100.00;96426.63;5074682;28;19951;-77
2022/12/31 01:53:07;;;;;;;;;;;;;;;11.09;100.00;96427.09;5074250;28;19963;-77
2022/12/31 01:55:43;;;;;;;;;;;;;;;11.06;100.00;96424.91;5074776;28;19962;-77
2022/12/31 01:58:14;;;;;;;;;;;;;;;11.03;100.00;96440.31;5073759;28;19963;-77
2022/12/31 02:00:41;;;;;;;;;;;;;;;10.96;100.00;96432.47;5056487;28;19960;-77
2022/12/31 02:03:07;;;;;;;;;;;;;;;10.93;100.00;96430.31;5074281;28;19962;-77
2022/12/31 02:05:51;;;;;;;;;;;;;;;10.90;100.00;96444.69;5074097;28;19951;-79
2022/12/31 02:08:18;;;;;;;;;;;;;;;10.88;100.00;96451.16;5074721;28;19950;-77
2022/12/31 02:10:43;;;;;;;;;;;;;;;10.86;100.00;96450.59;5074449;28;19952;-77
2022/12/31 02:13:09;;;;;;;;;;;;;;;10.84;100.00;96447.38;5073986;28;19952;-77
2022/12/31 02:15:35;;;;;;;;;;;;;;;10.83;100.00;96446.56;5074193;28;19957;-77
2022/12/31 02:18:01;;;;;;;;;;;;;;;10.84;100.00;96452.63;5073802;28;20359;-76
2022/12/31 02:20:45;;;;;;;;;;;;;;;10.84;100.00;96450.81;5074266;28;20357;-77
2022/12/31 02:23:26;;;;;;;;;;;;;;;10.85;100.00;96455.00;5073965;28;19971;-78
2022/12/31 02:26:16;;;;;;;;;;;;;;;10.88;100.00;96454.59;5074023;28;19955;-77
2022/12/31 02:28:42;;;;;;;;;;;;;;;10.93;100.00;96459.97;5074168;28;19964;-77
2022/12/31 02:31:10;;;;;;;;;;;;;;;10.97;100.00;96460.34;5073934;28;19956;-77
2022/12/31 02:33:39;;;;;;;;;;;;;;;11.00;100.00;96452.00;5074405;28;19956;-77
2022/12/31 02:36:10;;;;;;;;;;;;;;;11.05;100.00;96465.28;5073519;28;19953;-77
2022/12/31 02:38:40;;;;;;;;;;;;;;;11.06;100.00;96464.25;5055967;28;19960;-78
2022/12/31 02:41:10;;;;;;;;;;;;;;;11.06;100.00;96460.84;5059236;28;19956;-77
2022/12/31 02:43:44;;;;;;;;;;;;;;;11.07;100.00;96465.88;5055863;28;19970;-79
2022/12/31 02:46:24;;;;;;;;;;;;;;;11.11;100.00;96468.88;5074257;28;19957;-77
2022/12/31 02:48:57;;;;;;;;;;;;;;;11.14;100.00;96469.22;5062985;28;19954;-77
2022/12/31 02:51:31;;;;;;;;;;;;;;;11.19;100.00;96471.16;5073602;28;19954;-78
2022/12/31 02:54:00;;;;;;;;;;;;;;;11.23;100.00;96476.78;5073830;28;19949;-77
2022/12/31 02:56:30;;;;;;;;;;;;;;;11.25;100.00;96469.50;5073544;28;19954;-77
2022/12/31 03:04:35;;;;;;;;;;;;;;;11.43;100.00;96455.53;5073730;28;19970;-78
2022/12/31 03:07:08;;;;;;;;;;;;;;;11.49;100.00;96457.28;5073504;28;19963;-77
2022/12/31 03:09:35;;;;;;;;;;;;;;;11.53;100.00;96456.59;5057434;28;19955;-77
2022/12/31 03:14:47;;;;;;;;;;;;;;;11.57;100.00;96460.38;5077429;28;20427;-78
2022/12/31 03:17:13;;;;;;;;;;;;;;;11.61;100.00;96460.72;5076427;28;19955;-77
2022/12/31 03:22:26;;;;;;;;;;;;;;;11.65;100.00;96477.63;5077480;28;20323;-77
2022/12/31 03:27:41;;;;;;;;;;;;;;;11.71;100.00;96468.06;5077153;28;19971;-77
2022/12/31 03:30:08;;;;;;;;;;;;;;;11.70;100.00;96462.03;5077554;28;19961;-77
2022/12/31 03:32:34;;;;;;;;;;;;;;;11.71;100.00;96458.34;5077237;28;19961;-78
2022/12/31 03:35:00;;;;;;;;;;;;;;;11.71;100.00;96458.34;5077281;28;19962;-77
2022/12/31 03:37:26;;;;;;;;;;;;;;;11.73;100.00;96464.19;5077042;28;19979;-77
2022/12/31 03:39:52;;;;;;;;;;;;;;;11.75;100.00;96463.97;5077182;28;20336;-77
2022/12/31 03:42:17;;;;;;;;;;;;;;;11.77;100.00;96470.59;5077081;28;20477;-77
2022/12/31 03:44:43;;;;;;;;;;;;;;;11.79;100.00;96471.19;5077264;28;19957;-77
2022/12/31 03:47:09;;;;;;;;;;;;;;;11.82;100.00;96474.38;5076711;28;20394;-77
2022/12/31 03:49:35;;;;;;;;;;;;;;;11.86;100.00;96465.81;5077016;28;19997;-77
2022/12/31 03:52:02;;;;;;;;;;;;;;;11.88;100.00;96474.31;5077120;28;20049;-77
2022/12/31 03:54:28;;;;;;;;;;;;;;;11.91;100.00;96488.84;5076639;28;19981;-77
2022/12/31 03:56:54;;;;;;;;;;;;;;;11.95;100.00;96485.53;5076767;28;19950;-77
2022/12/31 03:59:19;;;;;;;;;;;;;;;12.01;100.00;96477.75;5076558;28;20321;-77
2022/12/31 04:01:45;;;;;;;;;;;;;;;12.03;100.00;96486.22;5058831;28;20013;-76
2022/12/31 04:04:11;;;;;;;;;;;;;;;12.07;100.00;96480.28;5076341;28;20004;-77
2022/12/31 04:06:37;;;;;;;;;;;;;;;12.10;100.00;96497.47;5076345;28;20036;-77
2022/12/31 04:09:03;;;;;;;;;;;;;;;12.10;100.00;96486.94;5076540;28;19963;-77
2022/12/31 04:11:29;;;;;;;;;;;;;;;12.12;100.00;96490.16;5076356;28;20010;-77
2022/12/31 04:13:55;;;;;;;;;;;;;;;12.12;100.00;96483.06;5076714;28;19959;-77
2022/12/31 04:16:20;;;;;;;;;;;;;;;12.15;100.00;96484.41;5076318;28;20390;-77
2022/12/31 04:18:46;;;;;;;;;;;;;;;12.17;100.00;96485.00;5076407;28;20370;-77
2022/12/31 04:21:12;;;;;;;;;;;;;;;12.17;100.00;96488.41;5075060;28;20023;-77
2022/12/31 04:23:38;;;;;;;;;;;;;;;12.17;100.00;96488.41;5058373;28;20021;-76
2022/12/31 04:26:04;;;;;;;;;;;;;;;12.17;100.00;96490.25;5058841;28;19977;-76
2022/12/31 04:28:30;;;;;;;;;;;;;;;12.17;100.00;96487.63;5076421;28;19996;-77
2022/12/31 04:30:55;;;;;;;;;;;;;;;12.18;100.00;96489.25;5076400;28;19956;-78
2022/12/31 04:33:21;;;;;;;;;;;;;;;12.16;100.00;96488.66;5076052;28;20409;-76
2022/12/31 04:35:47;;;;;;;;;;;;;;;12.15;100.00;96487.84;5075951;28;20003;-76
2022/12/31 04:38:13;;;;;;;;;;;;;;;12.13;100.00;96487.28;5076313;28;19977;-77
2022/12/31 04:41:15;;;;;;;;;;;;;;;12.11;100.00;96502.47;5075847;28;20409;-77
2022/12/31 04:43:25;;;;;;;;;;;;;;;12.14;100.00;96495.97;5075964;28;20363;-77
2022/12/31 04:45:51;;;;;;;;;;;;;;;12.15;100.00;96505.44;5075825;28;19991;-76
2022/12/31 04:48:16;;;;;;;;;;;;;;;12.16;100.00;96499.19;5075771;28;20468;-77
2022/12/31 04:50:42;;;;;;;;;;;;;;;12.16;100.00;96497.34;5057798;28;19955;-76
2022/12/31 04:53:08;;;;;;;;;;;;;;;12.17;100.00;96511.28;5076128;28;19962;-77
2022/12/31 04:55:34;;;;;;;;;;;;;;;12.17;100.00;96519.97;5075562;28;20003;-77
2022/12/31 04:58:00;;;;;;;;;;;;;;;12.20;100.00;96524.00;5075766;28;19999;-76
2022/12/31 05:00:26;;;;;;;;;;;;;;;12.21;100.00;96525.59;5057718;28;19986;-77
2022/12/31 05:02:51;;;;;;;;;;;;;;;12.23;100.00;96522.75;5075875;28;19953;-76
2022/12/31 05:05:17;;;;;;;;;;;;;;;12.24;100.00;96512.00;5075305;28;19956;-76
2022/12/31 05:07:43;;;;;;;;;;;;;;;12.27;100.00;96535.19;5075515;28;20328;-76
2022/12/31 05:10:09;;;;;;;;;;;;;;;12.29;100.00;96516.56;5075479;28;19960;-77
2022/12/31 05:12:35;;;;;;;;;;;;;;;12.30;100.00;96544.47;5075604;28;19993;-77
2022/12/31 05:15:01;;;;;;;;;;;;;;;12.30;100.00;96544.47;5075083;28;20045;-77
2022/12/31 05:17:27;;;;;;;;;;;;;;;12.29;100.00;96532.34;5075511;28;19956;-76
2022/12/31 05:19:53;;;;;;;;;;;;;;;12.28;100.00;96534.16;5075059;28;19993;-76
2022/12/31 05:22:27;;;;;;;;;;;;;;;12.30;100.00;96534.72;5075173;28;19959;-76
2022/12/31 05:24:54;;;;;;;;;;;;;;;12.32;100.00;96535.31;5075038;28;19984;-76
2022/12/31 05:27:20;;;;;;;;;;;;;;;12.33;100.00;96539.56;5074878;28;19954;-76
2022/12/31 05:29:46;;;;;;;;;;;;;;;12.34;100.00;96543.78;5074873;28;19960;-76
2022/12/31 05:32:12;;;;;;;;;;;;;;;12.34;100.00;96549.03;5075464;28;20423;-76
2022/12/31 05:34:38;;;;;;;;;;;;;;;12.31;100.00;96546.88;5074745;28;20403;-76
2022/12/31 05:37:03;;;;;;;;;;;;;;;12.32;100.00;96543.19;5074968;28;20034;-76
2022/12/31 05:39:29;;;;;;;;;;;;;;;12.30;100.00;96533.94;5074743;28;20322;-77
2022/12/31 05:41:55;;;;;;;;;;;;;;;12.27;100.00;96542.28;5057008;28;20035;-76
2022/12/31 05:44:21;;;;;;;;;;;;;;;12.20;100.00;96550.28;5074571;28;20313;-77
2022/12/31 05:46:47;;;;;;;;;;;;;;;12.14;100.00;96538.84;5074686;28;19962;-77
2022/12/31 05:49:13;;;;;;;;;;;;;;;12.13;100.00;96545.09;5074657;28;19956;-76
2022/12/31 05:51:39;;;;;;;;;;;;;;;12.09;100.00;96537.91;5074601;28;19957;-76
2022/12/31 05:54:04;;;;;;;;;;;;;;;12.05;100.00;96540.16;5074974;28;20046;-76
2022/12/31 05:56:30;;;;;;;;;;;;;;;12.01;100.00;96543.47;5074332;28;20023;-76
2022/12/31 05:58:56;;;;;;;;;;;;;;;11.98;100.00;96563.13;5074668;28;20006;-76
2022/12/31 06:01:22;;;;;;;;;;;;;;;11.96;100.00;96554.66;5074201;28;20000;-77
2022/12/31 06:03:48;;;;;;;;;;;;;;;11.94;100.00;96569.84;5074332;28;20021;-76
2022/12/31 06:06:14;;;;;;;;;;;;;;;11.90;100.00;96572.13;5074190;28;20040;-76
2022/12/31 06:08:40;;;;;;;;;;;;;;;11.87;100.00;96579.63;5074367;28;20048;-76
2022/12/31 06:11:05;;;;;;;;;;;;;;;11.82;100.00;96579.47;5056216;28;20473;-76
2022/12/31 06:13:31;;;;;;;;;;;;;;;11.73;100.00;96579.78;5074076;28;19994;-76
2022/12/31 06:16:03;;;;;;;;;;;;;;;11.67;100.00;96595.63;5074189;28;19961;-77
2022/12/31 06:18:28;;;;;;;;;;;;;;;11.60;100.00;96587.03;5074187;28;19954;-76
2022/12/31 06:20:56;;;;;;;;;;;;;;;11.54;100.00;96596.59;5073939;28;19957;-76
2022/12/31 06:23:22;;;;;;;;;;;;;;;11.51;100.00;96597.06;5073948;28;19955;-76
2022/12/31 06:25:48;;;;;;;;;;;;;;;11.48;100.00;96600.09;5073875;28;20001;-76
2022/12/31 06:28:14;;;;;;;;;;;;;;;11.46;100.00;96602.16;5074346;28;19952;-76
2022/12/31 06:30:40;;;;;;;;;;;;;;;11.42;100.00;96595.72;5074050;28;20052;-77
2022/12/31 06:33:06;;;;;;;;;;;;;;;11.41;100.00;96602.00;5074128;28;19959;-76
2022/12/31 06:35:32;;;;;;;;;;;;;;;11.37;100.00;96610.31;5073748;28;19956;-76
2022/12/31 06:37:57;;;;;;;;;;;;;;;11.37;100.00;96602.44;5074121;28;20027;-76
2022/12/31 06:40:23;;;;;;;;;;;;;;;11.37;100.00;96596.38;5073583;28;19950;-77
2022/12/31 06:42:49;;;;;;;;;;;;;;;11.38;100.00;96595.34;5073855;28;20296;-76
2022/12/31 06:45:15;;;;;;;;;;;;;;;11.36;100.00;96585.09;5072938;28;19976;-76
2022/12/31 06:47:41;;;;;;;;;;;;;;;11.40;100.00;96576.75;5074200;28;20018;-76
2022/12/31 06:50:07;;;;;;;;;;;;;;;11.41;100.00;96573.13;5073686;28;19956;-79
2022/12/31 06:52:33;;;;;;;;;;;;;;;11.43;100.00;96584.22;5073861;28;19957;-76
2022/12/31 06:54:59;;;;;;;;;;;;;;;11.43;100.00;96577.13;5073418;28;19956;-77
2022/12/31 06:57:25;;;;;;;;;;;;;;;11.43;100.00;96584.22;5055728;28;19950;-77
2022/12/31 06:59:51;;;;;;;;;;;;;;;11.43;100.00;96576.34;5073982;28;19954;-76
2022/12/31 07:02:30;;;;;;;;;;;;;;;11.40;100.00;96590.69;5073466;28;19960;-77
2022/12/31 07:05:13;;;;;;;;;;;;;;;11.38;100.00;96592.72;5055834;28;20440;-77
2022/12/31 07:07:48;;;;;;;;;;;;;;;11.37;100.00;96591.94;5073475;28;19958;-78
2022/12/31 07:10:33;;;;;;;;;;;;;;;11.37;100.00;96599.81;5063845;28;19964;-77
2022/12/31 07:13:02;;;;;;;;;;;;;;;11.39;100.00;96599.59;5058957;28;19958;-77
2022/12/31 07:15:47;;;;;;;;;;;;;;;11.39;100.00;96604.84;5073298;28;20022;-77
2022/12/31 07:18:31;;;;;;;;;;;;;;;11.40;100.00;96603.81;5073707;28;19962;-76
2022/12/31 07:20:57;;;;;;;;;;;;;;;11.41;100.00;96607.25;5073481;28;19967;-76
2022/12/31 07:23:23;;;;;;;;;;;;;;;11.38;100.00;96598.81;5055257;28;19956;-76
2022/12/31 07:26:15;;;;;;;;;;;;;;;11.38;100.00;96606.69;5073384;28;19968;-76
2022/12/31 07:28:44;;;;;;;;;;;;;;;11.37;100.00;96612.94;5042485;28;19978;-76
2022/12/31 07:31:36;;;;;;;;;;;;;;;11.36;100.00;96619.22;5073514;28;19959;-77
2022/12/31 07:34:24;;;;;;;;;;;;;;;11.35;100.00;96622.06;5070104;28;19950;-76
2022/12/31 07:37:18;;;;;;;;;;;;;;;11.33;100.00;96638.03;5055043;28;19983;-77
2022/12/31 07:39:50;;;;;;;;;;;;;;;11.30;100.00;96641.09;5073445;28;19959;-76
2022/12/31 07:42:16;;;;;;;;;;;;;;;11.29;100.00;96639.47;5073204;28;19958;-76
2022/12/31 07:44:50;;;;;;;;;;;;;;;11.28;100.00;96643.13;5073283;28;19987;-77
2022/12/31 07:47:20;;;;;;;;;;;;;;;11.26;100.00;96645.16;5073291;28;19949;-76
2022/12/31 07:49:46;;;;;;;;;;;;;;;11.24;100.00;96647.22;5073471;28;19951;-76
2022/12/31 07:52:12;;;;;;;;;;;;;;;11.22;100.00;96641.38;5055296;28;19950;-77
2022/12/31 07:54:38;;;;;;;;;;;;;;;11.22;100.00;96637.94;5073387;28;19954;-77
2022/12/31 07:57:04;;;;;;;;;;;;;;;11.20;100.00;96643.41;5077059;28;20005;-77
2022/12/31 07:59:50;;;;;;;;;;;;;;;11.24;100.00;96643.78;5058915;28;20405;-76
2022/12/31 08:02:28;;;;;;;;;;;;;;;11.31;100.00;96658.44;5065563;28;19966;-77
2022/12/31 08:04:54;;;;;;;;;;;;;;;11.41;100.00;96665.03;5065516;28;19971;-76
2022/12/31 08:07:56;;;;;;;;;;;;;;;11.54;100.00;96657.00;5058601;28;19963;-77
2022/12/31 08:10:42;;;;;;;;;;;;;;;11.64;100.00;96657.31;5014706;28;19947;-77
2022/12/31 08:13:09;;;;;;;;;;;;;;;11.75;100.00;96659.19;5072156;28;19967;-76
2022/12/31 08:15:38;;;;;;;;;;;;;;;11.82;100.00;96655.69;5076586;28;19947;-77
2022/12/31 08:18:05;;;;;;;;;;;;;;;11.85;100.00;96666.56;5076381;28;20401;-76
2022/12/31 08:20:32;;;;;;;;;;;;;;;11.88;100.00;96660.06;5076301;28;19962;-77
2022/12/31 08:23:07;;;;;;;;;;;;;;;11.91;100.00;96652.56;5076309;28;19954;-76
2022/12/31 08:25:52;;;;;;;;;;;;;;;12.08;100.00;96650.13;5076104;28;19974;-77
2022/12/31 08:28:24;;;;;;;;;;;;;;;12.30;100.00;96649.66;5076542;28;19953;-76
2022/12/31 08:30:50;;;;;;;;;;;;;;;12.46;100.00;96651.66;5075941;28;19957;-77
2022/12/31 08:33:24;;;;;;;;;;;;;;;12.63;100.00;96645.75;5076331;28;20005;-77
2022/12/31 08:36:02;;;;;;;;;;;;;;;12.66;100.00;96634.75;5076358;28;19953;-77
2022/12/31 08:38:42;;;;;;;;;;;;;;;12.63;100.00;96651.00;5058049;28;20033;-77
2022/12/31 08:41:16;;;;;;;;;;;;;;;12.58;100.00;96664.84;5075892;28;19962;-77
2022/12/31 08:43:48;;;;;;;;;;;;;;;12.53;100.00;96673.38;5075851;28;20402;-76
2022/12/31 08:46:19;;;;;;;;;;;;;;;12.49;100.00;96671.44;5076276;28;19952;-76
2022/12/31 08:48:47;;;;;;;;;;;;;;;12.47;100.00;96684.00;5075836;28;19948;-76
2022/12/31 08:51:23;;;;;;;;;;;;;;;12.47;100.00;96697.16;5075823;28;19951;-76
2022/12/31 08:53:49;;;;;;;;;;;;;;;12.44;100.00;96693.16;5075820;28;19967;-77
2022/12/31 08:56:21;;;;;;;;;;;;;;;12.42;100.00;96697.84;5075575;28;19960;-76
2022/12/31 08:58:52;;;;;;;;;;;;;;;12.40;100.00;96702.50;5058084;28;19954;-76
2022/12/31 09:01:20;;;;;;;;;;;;;;;12.41;100.00;96701.50;5075888;28;19977;-76
2022/12/31 09:04:01;;;;;;;;;;;;;;;12.42;100.00;96700.47;5075605;28;19948;-76
2022/12/31 09:06:33;;;;;;;;;;;;;;;12.57;100.00;96706.13;5074900;28;19956;-76
2022/12/31 09:09:05;;;;;;;;;;;;;;;12.77;100.00;96697.94;5075365;28;20317;-77
2022/12/31 09:11:49;;;;;;;;;;;;;;;12.93;100.00;96691.22;5075669;28;19957;-76
2022/12/31 09:14:15;;;;;;;;;;;;;;;13.10;100.00;96686.09;5075591;28;20350;-76
2022/12/31 09:17:01;;;;;;;;;;;;;;;13.31;100.00;96703.22;5075145;28;19951;-76
2022/12/31 09:19:27;;;;;;;;;;;;;;;13.55;100.00;96680.28;5075092;28;19967;-77
2022/12/31 09:21:53;;;;;;;;;;;;;;;13.75;100.00;96693.09;5057281;28;19953;-77
2022/12/31 09:24:19;;;;;;;;;;;;;;;13.93;100.00;96673.69;5057352;28;20341;-77
2022/12/31 09:26:48;;;;;;;;;;;;;;;14.08;99.31;96662.63;5074850;28;20045;-76
2022/12/31 09:29:14;;;;;;;;;;;;;;;14.25;96.01;96665.31;5075434;28;19974;-77
2022/12/31 09:31:42;;;;;;;;;;;;;;;14.44;97.94;96675.69;5075414;28;20401;-77
2022/12/31 09:34:18;;;;;;;;;;;;;;;14.58;93.07;96655.91;5075027;28;19987;-76
2022/12/31 09:36:47;;;;;;;;;;;;;;;14.75;94.07;96663.84;5075069;28;19975;-76
2022/12/31 09:39:22;;;;;;;;;;;;;;;14.92;93.93;96664.66;5074730;28;20404;-76
2022/12/31 09:42:03;;;;;;;;;;;;;;;15.10;95.13;96673.38;5074665;28;19950;-76
2022/12/31 09:44:51;;;;;;;;;;;;;;;15.28;89.29;96643.28;5074524;28;20024;-76
2022/12/31 09:47:20;;;;;;;;;;;;;;;15.38;88.61;96643.41;5074871;28;19948;-76
2022/12/31 09:50:05;;;;;;;;;;;;;;;15.46;86.10;96629.00;5074565;28;20372;-76
2022/12/31 09:52:31;;;;;;;;;;;;;;;15.58;90.99;96658.72;5062529;28;19954;-76
2022/12/31 09:55:18;;;;;;;;;;;;;;;15.61;88.35;96634.47;5074602;28;19950;-76
2022/12/31 09:57:56;;;;;;;;;;;;;;;15.68;87.14;96634.28;5056935;28;19946;-76
2022/12/31 10:00:27;;;;;;;;;;;;;;;15.73;86.79;96647.63;5074295;28;19955;-77
2022/12/31 10:03:06;;;;;;;;;;;;;;;15.76;83.77;96623.31;5074901;28;19957;-76
2022/12/31 10:05:44;;;;;;;;;;;;;;;15.82;88.22;96660.16;5074075;28;19977;-76
2022/12/31 10:08:16;;;;;;;;;;;;;;;15.94;85.49;96644.16;5074302;28;19945;-76
2022/12/31 10:10:41;;;;;;;;;;;;;;;16.00;87.66;96661.69;5074282;28;19962;-76
2022/12/31 10:13:26;;;;;;;;;;;;;;;16.03;82.86;96610.94;5074028;28;19951;-76
2022/12/31 10:16:14;;;;;;;;;;;;;;;16.00;83.84;96619.38;5074206;28;19958;-76
2022/12/31 10:18:46;;;;;;;;;;;;;;;16.06;82.82;96616.75;5055312;28;19950;-75
2022/12/31 10:21:18;;;;;;;;;;;;;;;16.10;81.19;96607.28;5073882;28;19953;-76
2022/12/31 10:24:17;;;;;;;;;;;;;;;16.18;83.18;96628.81;5074304;28;19948;-76
2022/12/31 10:27:03;;;;;;;;;;;;;;;16.29;81.14;96607.75;5029589;28;19957;-76
2022/12/31 10:29:41;;;;;;;;;;;;;;;16.42;79.85;96575.56;5055839;28;19969;-78
2022/12/31 10:32:28;;;;;;;;;;;;;;;16.49;80.67;96570.88;5073941;28;19959;-76
2022/12/31 10:34:59;;;;;;;;;;;;;;;16.64;80.82;96589.53;5073063;28;19945;-76
2022/12/31 10:37:44;;;;;;;;;;;;;;;16.75;80.62;96594.91;5055697;28;20443;-76
2022/12/31 10:40:18;;;;;;;;;;;;;;;16.78;77.46;96567.94;5073747;28;19967;-76
2022/12/31 10:43:01;;;;;;;;;;;;;;;16.80;79.66;96584.34;5074278;28;19951;-76
2022/12/31 10:45:46;;;;;;;;;;;;;;;16.80;76.97;96565.81;5073176;28;19960;-75
2022/12/31 10:48:12;;;;;;;;;;;;;;;16.72;73.15;96524.72;5073710;28;20426;-76
2022/12/31 10:50:53;;;;;;;;;;;;;;;16.76;76.38;96554.13;5073597;28;19949;-76
2022/12/31 10:53:36;;;;;;;;;;;;;;;16.77;75.21;96529.25;5059930;28;19967;-76
2022/12/31 10:56:21;;;;;;;;;;;;;;;16.74;75.36;96543.78;5073893;28;19952;-74
2022/12/31 10:59:07;;;;;;;;;;;;;;;16.75;72.20;96513.59;5073939;28;19957;-74
2022/12/31 11:01:58;;;;;;;;;;;;;;;16.78;77.58;96558.13;5060341;28;20317;-74
2022/12/31 11:04:24;;;;;;;;;;;;;;;16.79;78.58;96556.25;5073270;28;19962;-75
2022/12/31 11:07:22;;;;;;;;;;;;;;;16.80;75.81;96531.38;5073418;28;19969;-74
2022/12/31 11:09:48;;;;;;;;;;;;;;;16.87;76.81;96539.13;5022323;28;20371;-74
2022/12/31 11:12:32;;;;;;;;;;;;;;;16.92;76.08;96533.84;5069169;28;19983;-74
2022/12/31 11:15:37;;;;;;;;;;;;;;;16.90;74.17;96512.91;5073639;28;20449;-74
2022/12/31 11:18:13;;;;;;;;;;;;;;;16.88;72.61;96507.06;4991974;28;19974;-74
2022/12/31 11:20:59;;;;;;;;;;;;;;;16.86;74.57;96525.06;4975907;28;19954;-74
2022/12/31 11:23:33;;;;;;;;;;;;;;;16.86;74.18;96506.53;5046358;28;20444;-75
2022/12/31 11:26:08;;;;;;;;;;;;;;;16.91;73.98;96503.13;5062167;28;19964;-74
2022/12/31 11:28:43;;;;;;;;;;;;;;;16.95;72.43;96485.69;5073387;28;19956;-74
2022/12/31 11:31:21;;;;;;;;;;;;;;;16.99;73.40;96503.44;5075970;28;19960;-74
2022/12/31 11:33:56;;;;;;;;;;;;;;;17.07;73.51;96504.00;5077308;28;19947;-74
2022/12/31 11:36:42;;;;;;;;;;;;;;;17.12;71.15;96466.94;5077255;28;19977;-74
2022/12/31 11:39:23;;;;;;;;;;;;;;;17.12;69.93;96456.34;5076664;28;19961;-74
2022/12/31 11:41:54;;;;;;;;;;;;;;;17.21;71.71;96482.06;5076670;28;19955;-74
2022/12/31 11:44:34;;;;;;;;;;;;;;;17.29;73.47;96487.94;5077223;28;20316;-74
2022/12/31 11:47:19;;;;;;;;;;;;;;;17.32;71.90;96474.16;5076881;28;19955;-74
2022/12/31 11:50:02;;;;;;;;;;;;;;;17.36;72.42;96483.97;5065600;28;19948;-74
2022/12/31 11:52:43;;;;;;;;;;;;;;;17.31;68.64;96438.91;5064331;28;19946;-74
2022/12/31 11:55:21;;;;;;;;;;;;;;;17.31;73.07;96485.84;5076591;28;19976;-74
2022/12/31 11:57:49;;;;;;;;;;;;;;;17.31;73.19;96483.19;5059261;28;19945;-74
2022/12/31 12:00:19;;;;;;;;;;;;;;;17.25;71.15;96463.81;5076680;28;19954;-74
2022/12/31 12:02:52;;;;;;;;;;;;;;;17.24;72.06;96475.47;5075714;28;20298;-74
2022/12/31 12:05:20;;;;;;;;;;;;;;;17.24;69.84;96452.41;5076727;28;19974;-74
2022/12/31 12:07:47;;;;;;;;;;;;;;;17.25;70.96;96472.53;5076513;28;19953;-74
2022/12/31 12:10:27;;;;;;;;;;;;;;;17.25;72.50;96477.06;5076515;28;19955;-74
2022/12/31 12:12:53;;;;;;;;;;;;;;;17.26;72.70;96476.00;5076432;28;19955;-75
2022/12/31 12:15:25;;;;;;;;;;;;;;;17.27;71.07;96463.56;5076416;28;19961;-75
2022/12/31 12:17:52;;;;;;;;;;;;;;;17.27;67.04;96435.19;5076433;28;19965;-75
2022/12/31 12:20:23;;;;;;;;;;;;;;;17.27;70.64;96464.34;5076530;28;19957;-74
2022/12/31 12:22:50;;;;;;;;;;;;;;;17.27;69.21;96455.59;5076901;28;20331;-75
2022/12/31 12:25:19;;;;;;;;;;;;;;;17.30;67.84;96439.94;5076292;28;20349;-74
2022/12/31 12:27:45;;;;;;;;;;;;;;;17.37;68.56;96439.72;5076519;28;19961;-74
2022/12/31 12:30:17;;;;;;;;;;;;;;;17.37;69.59;96459.06;5076321;28;19960;-75
2022/12/31 12:32:54;;;;;;;;;;;;;;;17.39;67.67;96438.41;5075919;28;19960;-75
2022/12/31 12:35:24;;;;;;;;;;;;;;;17.39;65.09;96419.84;5076150;28;19955;-75
2022/12/31 12:37:57;;;;;;;;;;;;;;;17.40;65.52;96420.63;5076142;28;19987;-75
2022/12/31 12:40:23;;;;;;;;;;;;;;;17.39;65.57;96421.72;5075886;28;20415;-75
2022/12/31 12:42:52;;;;;;;;;;;;;;;17.39;67.42;96434.97;5074251;28;21382;-75
2022/12/31 12:45:20;;;;;;;;;;;;;;;17.38;67.63;96436.00;5075708;28;20421;-75
2022/12/31 12:47:48;;;;;;;;;;;;;;;17.34;64.15;96414.53;5075889;28;19953;-75
2022/12/31 12:50:19;;;;;;;;;;;;;;;17.31;65.17;96427.53;5075775;28;19953;-76
2022/12/31 12:53:12;;;;;;;;;;;;;;;17.28;67.30;96433.31;5060720;28;19947;-75
2022/12/31 12:55:40;;;;;;;;;;;;;;;17.24;69.39;96463.03;5075687;28;19952;-75
2022/12/31 12:58:16;;;;;;;;;;;;;;;17.17;67.72;96457.16;5075657;28;19954;-75
2022/12/31 13:00:50;;;;;;;;;;;;;;;17.09;67.48;96447.03;5075134;28;19963;-74
2022/12/31 13:03:34;;;;;;;;;;;;;;;17.02;68.01;96447.28;5075769;28;19972;-74
2022/12/31 13:06:19;;;;;;;;;;;;;;;16.98;70.50;96467.41;5075316;28;20330;-75
2022/12/31 13:08:45;;;;;;;;;;;;;;;16.91;72.35;96476.66;5075732;28;19953;-74
2022/12/31 13:11:25;;;;;;;;;;;;;;;16.84;73.27;96479.53;5075528;28;20365;-75
2022/12/31 13:14:09;;;;;;;;;;;;;;;16.77;74.30;96481.56;5075553;28;19949;-75
2022/12/31 13:16:47;;;;;;;;;;;;;;;16.70;74.53;96481.78;5075339;28;19948;-75